sensor_id;sensor_type;location;lat;lon;timestamp;P1;durP1;ratioP1;P2;durP2;ratioP2
26582;SDS011;14230;45.382;10.998;2023-04-19T00:02:14;7.78;;;5.50;;
26582;SDS011;14230;45.382;10.998;2023-04-19T00:04:42;9.25;;;6.70;;
26582;SDS011;14230;45.382;10.998;2023-04-19T00:07:12;11.43;;;6.05;;
26582;SDS011;14230;45.382;10.998;2023-04-19T00:09:39;8.43;;;5.38;;
26582;SDS011;14230;45.382;10.998;2023-04-19T00:12:07;9.68;;;5.80;;
26582;SDS011;14230;45.382;10.998;2023-04-19T00:14:34;10.20;;;5.68;;
26582;SDS011;14230;45.382;10.998;2023-04-19T00:17:02;9.35;;;5.45;;
26582;SDS011;14230;45.382;10.998;2023-04-19T00:19:30;7.57;;;5.05;;
26582;SDS011;14230;45.382;10.998;2023-04-19T00:21:57;9.38;;;5.15;;
26582;SDS011;14230;45.382;10.998;2023-04-19T00:24:25;12.00;;;5.75;;
26582;SDS011;14230;45.382;10.998;2023-04-19T00:26:52;10.95;;;5.57;;
26582;SDS011;14230;45.382;10.998;2023-04-19T00:29:20;7.47;;;5.20;;
26582;SDS011;14230;45.382;10.998;2023-04-19T00:31:47;11.25;;;5.40;;
26582;SDS011;14230;45.382;10.998;2023-04-19T00:34:15;8.95;;;5.32;;
26582;SDS011;14230;45.382;10.998;2023-04-19T00:36:42;7.20;;;5.50;;
26582;SDS011;14230;45.382;10.998;2023-04-19T00:39:11;11.95;;;5.07;;
26582;SDS011;14230;45.382;10.998;2023-04-19T00:41:39;5.65;;;5.05;;
26582;SDS011;14230;45.382;10.998;2023-04-19T00:44:07;7.82;;;5.00;;
26582;SDS011;14230;45.382;10.998;2023-04-19T00:46:35;7.07;;;4.75;;
26582;SDS011;14230;45.382;10.998;2023-04-19T00:49:03;7.72;;;4.93;;
26582;SDS011;14230;45.382;10.998;2023-04-19T00:51:32;9.65;;;5.32;;
26582;SDS011;14230;45.382;10.998;2023-04-19T00:54:01;11.27;;;4.80;;
26582;SDS011;14230;45.382;10.998;2023-04-19T00:56:29;8.52;;;5.05;;
26582;SDS011;14230;45.382;10.998;2023-04-19T00:58:57;5.70;;;4.47;;
26582;SDS011;14230;45.382;10.998;2023-04-19T01:01:25;7.97;;;4.40;;
26582;SDS011;14230;45.382;10.998;2023-04-19T01:03:53;7.97;;;4.88;;
26582;SDS011;14230;45.382;10.998;2023-04-19T01:06:20;8.73;;;4.57;;
26582;SDS011;14230;45.382;10.998;2023-04-19T01:08:48;7.28;;;4.45;;
26582;SDS011;14230;45.382;10.998;2023-04-19T01:11:16;5.00;;;4.47;;
26582;SDS011;14230;45.382;10.998;2023-04-19T01:13:44;7.07;;;4.32;;
26582;SDS011;14230;45.382;10.998;2023-04-19T01:16:11;9.85;;;4.43;;
26582;SDS011;14230;45.382;10.998;2023-04-19T01:18:39;6.03;;;4.40;;
26582;SDS011;14230;45.382;10.998;2023-04-19T01:21:07;11.13;;;4.85;;
26582;SDS011;14230;45.382;10.998;2023-04-19T01:23:35;4.93;;;4.28;;
26582;SDS011;14230;45.382;10.998;2023-04-19T01:26:04;9.13;;;4.22;;
26582;SDS011;14230;45.382;10.998;2023-04-19T01:28:32;6.10;;;4.25;;
26582;SDS011;14230;45.382;10.998;2023-04-19T01:30:59;5.18;;;4.32;;
26582;SDS011;14230;45.382;10.998;2023-04-19T01:33:27;5.72;;;3.90;;
26582;SDS011;14230;45.382;10.998;2023-04-19T01:35:54;5.20;;;3.72;;
26582;SDS011;14230;45.382;10.998;2023-04-19T01:38:22;5.22;;;3.78;;
26582;SDS011;14230;45.382;10.998;2023-04-19T01:40:49;4.65;;;3.83;;
26582;SDS011;14230;45.382;10.998;2023-04-19T01:43:17;6.57;;;3.85;;
26582;SDS011;14230;45.382;10.998;2023-04-19T01:45:44;5.53;;;3.53;;
26582;SDS011;14230;45.382;10.998;2023-04-19T01:48:12;4.70;;;3.67;;
26582;SDS011;14230;45.382;10.998;2023-04-19T01:50:39;10.60;;;4.55;;
26582;SDS011;14230;45.382;10.998;2023-04-19T01:53:07;4.32;;;3.28;;
26582;SDS011;14230;45.382;10.998;2023-04-19T01:55:34;4.47;;;3.88;;
26582;SDS011;14230;45.382;10.998;2023-04-19T01:58:01;6.07;;;3.63;;
26582;SDS011;14230;45.382;10.998;2023-04-19T02:00:29;5.05;;;3.40;;
26582;SDS011;14230;45.382;10.998;2023-04-19T02:02:56;6.25;;;3.55;;
26582;SDS011;14230;45.382;10.998;2023-04-19T02:05:24;4.07;;;3.40;;
26582;SDS011;14230;45.382;10.998;2023-04-19T02:07:52;8.90;;;3.33;;
26582;SDS011;14230;45.382;10.998;2023-04-19T02:10:20;7.57;;;3.35;;
26582;SDS011;14230;45.382;10.998;2023-04-19T02:12:47;6.38;;;3.25;;
26582;SDS011;14230;45.382;10.998;2023-04-19T02:15:15;4.82;;;3.55;;
26582;SDS011;14230;45.382;10.998;2023-04-19T02:17:42;4.45;;;3.13;;
26582;SDS011;14230;45.382;10.998;2023-04-19T02:20:12;3.95;;;3.40;;
26582;SDS011;14230;45.382;10.998;2023-04-19T02:22:40;4.68;;;3.53;;
26582;SDS011;14230;45.382;10.998;2023-04-19T02:25:10;5.35;;;2.90;;
26582;SDS011;14230;45.382;10.998;2023-04-19T02:27:37;6.20;;;2.97;;
26582;SDS011;14230;45.382;10.998;2023-04-19T02:30:05;4.72;;;3.22;;
26582;SDS011;14230;45.382;10.998;2023-04-19T02:32:33;4.78;;;3.05;;
26582;SDS011;14230;45.382;10.998;2023-04-19T02:35:00;3.65;;;3.20;;
26582;SDS011;14230;45.382;10.998;2023-04-19T02:37:28;3.47;;;2.97;;
26582;SDS011;14230;45.382;10.998;2023-04-19T02:39:56;7.25;;;3.85;;
26582;SDS011;14230;45.382;10.998;2023-04-19T02:42:23;3.47;;;2.85;;
26582;SDS011;14230;45.382;10.998;2023-04-19T02:44:52;9.23;;;3.00;;
26582;SDS011;14230;45.382;10.998;2023-04-19T02:47:23;4.25;;;3.00;;
26582;SDS011;14230;45.382;10.998;2023-04-19T02:49:50;3.90;;;2.88;;
26582;SDS011;14230;45.382;10.998;2023-04-19T02:52:18;16.25;;;3.67;;
26582;SDS011;14230;45.382;10.998;2023-04-19T02:54:46;3.90;;;3.40;;
26582;SDS011;14230;45.382;10.998;2023-04-19T02:57:15;6.70;;;3.63;;
26582;SDS011;14230;45.382;10.998;2023-04-19T02:59:46;10.02;;;3.97;;
26582;SDS011;14230;45.382;10.998;2023-04-19T03:02:14;6.72;;;3.33;;
26582;SDS011;14230;45.382;10.998;2023-04-19T03:04:41;5.22;;;3.47;;
26582;SDS011;14230;45.382;10.998;2023-04-19T03:07:09;5.18;;;3.30;;
26582;SDS011;14230;45.382;10.998;2023-04-19T03:09:38;9.02;;;3.75;;
26582;SDS011;14230;45.382;10.998;2023-04-19T03:12:06;8.57;;;3.30;;
26582;SDS011;14230;45.382;10.998;2023-04-19T03:14:34;7.13;;;3.85;;
26582;SDS011;14230;45.382;10.998;2023-04-19T03:17:01;5.35;;;4.13;;
26582;SDS011;14230;45.382;10.998;2023-04-19T03:19:29;4.60;;;3.67;;
26582;SDS011;14230;45.382;10.998;2023-04-19T03:21:56;8.02;;;3.63;;
26582;SDS011;14230;45.382;10.998;2023-04-19T03:24:30;3.92;;;3.10;;
26582;SDS011;14230;45.382;10.998;2023-04-19T03:27:08;4.72;;;3.90;;
26582;SDS011;14230;45.382;10.998;2023-04-19T03:29:35;4.55;;;3.40;;
26582;SDS011;14230;45.382;10.998;2023-04-19T03:32:07;6.57;;;3.95;;
26582;SDS011;14230;45.382;10.998;2023-04-19T03:34:35;4.30;;;3.47;;
26582;SDS011;14230;45.382;10.998;2023-04-19T03:37:02;5.50;;;4.20;;
26582;SDS011;14230;45.382;10.998;2023-04-19T03:39:31;5.82;;;4.10;;
26582;SDS011;14230;45.382;10.998;2023-04-19T03:42:02;3.80;;;3.40;;
26582;SDS011;14230;45.382;10.998;2023-04-19T03:45:08;6.70;;;4.32;;
26582;SDS011;14230;45.382;10.998;2023-04-19T03:47:40;4.78;;;3.50;;
26582;SDS011;14230;45.382;10.998;2023-04-19T03:50:08;6.28;;;3.53;;
26582;SDS011;14230;45.382;10.998;2023-04-19T03:52:37;8.00;;;3.70;;
26582;SDS011;14230;45.382;10.998;2023-04-19T03:55:05;5.25;;;3.25;;
26582;SDS011;14230;45.382;10.998;2023-04-19T03:57:39;5.75;;;3.92;;
26582;SDS011;14230;45.382;10.998;2023-04-19T04:00:17;5.28;;;3.83;;
26582;SDS011;14230;45.382;10.998;2023-04-19T04:02:52;6.57;;;3.83;;
26582;SDS011;14230;45.382;10.998;2023-04-19T04:05:20;9.23;;;4.05;;
26582;SDS011;14230;45.382;10.998;2023-04-19T04:07:48;5.40;;;3.65;;
26582;SDS011;14230;45.382;10.998;2023-04-19T04:10:15;6.20;;;3.55;;
26582;SDS011;14230;45.382;10.998;2023-04-19T04:12:43;5.82;;;3.83;;
26582;SDS011;14230;45.382;10.998;2023-04-19T04:15:16;12.43;;;4.57;;
26582;SDS011;14230;45.382;10.998;2023-04-19T04:17:48;6.45;;;4.90;;
26582;SDS011;14230;45.382;10.998;2023-04-19T04:20:18;8.82;;;4.00;;
26582;SDS011;14230;45.382;10.998;2023-04-19T04:22:46;8.18;;;4.00;;
26582;SDS011;14230;45.382;10.998;2023-04-19T04:25:16;8.52;;;4.63;;
26582;SDS011;14230;45.382;10.998;2023-04-19T04:27:49;9.13;;;3.30;;
26582;SDS011;14230;45.382;10.998;2023-04-19T04:30:19;9.40;;;4.55;;
26582;SDS011;14230;45.382;10.998;2023-04-19T04:32:48;8.07;;;5.13;;
26582;SDS011;14230;45.382;10.998;2023-04-19T04:35:17;8.30;;;4.40;;
26582;SDS011;14230;45.382;10.998;2023-04-19T04:37:51;8.73;;;4.95;;
26582;SDS011;14230;45.382;10.998;2023-04-19T04:40:19;10.48;;;4.53;;
26582;SDS011;14230;45.382;10.998;2023-04-19T04:42:47;5.18;;;4.68;;
26582;SDS011;14230;45.382;10.998;2023-04-19T04:45:15;7.78;;;4.72;;
26582;SDS011;14230;45.382;10.998;2023-04-19T04:47:44;11.57;;;4.55;;
26582;SDS011;14230;45.382;10.998;2023-04-19T04:50:13;9.18;;;4.93;;
26582;SDS011;14230;45.382;10.998;2023-04-19T04:52:41;11.32;;;5.95;;
26582;SDS011;14230;45.382;10.998;2023-04-19T04:55:16;8.45;;;4.78;;
26582;SDS011;14230;45.382;10.998;2023-04-19T04:57:44;8.60;;;5.55;;
26582;SDS011;14230;45.382;10.998;2023-04-19T05:00:21;7.28;;;4.47;;
26582;SDS011;14230;45.382;10.998;2023-04-19T05:02:57;7.90;;;4.80;;
26582;SDS011;14230;45.382;10.998;2023-04-19T05:05:26;7.20;;;5.15;;
26582;SDS011;14230;45.382;10.998;2023-04-19T05:07:54;9.77;;;4.88;;
26582;SDS011;14230;45.382;10.998;2023-04-19T05:10:22;7.55;;;4.88;;
26582;SDS011;14230;45.382;10.998;2023-04-19T05:12:49;6.28;;;4.28;;
26582;SDS011;14230;45.382;10.998;2023-04-19T05:15:17;8.48;;;5.07;;
26582;SDS011;14230;45.382;10.998;2023-04-19T05:17:49;9.02;;;4.38;;
26582;SDS011;14230;45.382;10.998;2023-04-19T05:20:18;10.00;;;5.35;;
26582;SDS011;14230;45.382;10.998;2023-04-19T05:22:50;7.40;;;5.90;;
26582;SDS011;14230;45.382;10.998;2023-04-19T05:25:23;7.05;;;4.95;;
26582;SDS011;14230;45.382;10.998;2023-04-19T05:27:51;11.43;;;6.22;;
26582;SDS011;14230;45.382;10.998;2023-04-19T05:30:19;16.67;;;5.80;;
26582;SDS011;14230;45.382;10.998;2023-04-19T05:32:46;11.15;;;5.30;;
26582;SDS011;14230;45.382;10.998;2023-04-19T05:35:15;7.78;;;4.97;;
26582;SDS011;14230;45.382;10.998;2023-04-19T05:37:43;13.18;;;5.32;;
26582;SDS011;14230;45.382;10.998;2023-04-19T05:40:11;11.70;;;5.57;;
26582;SDS011;14230;45.382;10.998;2023-04-19T05:42:39;9.57;;;6.00;;
26582;SDS011;14230;45.382;10.998;2023-04-19T05:45:07;15.60;;;5.88;;
26582;SDS011;14230;45.382;10.998;2023-04-19T05:47:35;16.90;;;5.65;;
26582;SDS011;14230;45.382;10.998;2023-04-19T05:50:20;12.35;;;6.85;;
26582;SDS011;14230;45.382;10.998;2023-04-19T05:53:07;16.95;;;6.32;;
26582;SDS011;14230;45.382;10.998;2023-04-19T05:55:34;16.27;;;5.68;;
26582;SDS011;14230;45.382;10.998;2023-04-19T05:58:05;11.27;;;6.30;;
26582;SDS011;14230;45.382;10.998;2023-04-19T06:00:33;55.20;;;11.55;;
26582;SDS011;14230;45.382;10.998;2023-04-19T06:03:08;17.52;;;7.18;;
26582;SDS011;14230;45.382;10.998;2023-04-19T06:05:36;17.80;;;7.20;;
26582;SDS011;14230;45.382;10.998;2023-04-19T06:08:03;36.17;;;7.07;;
26582;SDS011;14230;45.382;10.998;2023-04-19T06:10:31;12.52;;;7.05;;
26582;SDS011;14230;45.382;10.998;2023-04-19T06:13:17;25.33;;;7.43;;
26582;SDS011;14230;45.382;10.998;2023-04-19T06:15:46;19.40;;;6.78;;
26582;SDS011;14230;45.382;10.998;2023-04-19T06:18:15;22.33;;;8.15;;
26582;SDS011;14230;45.382;10.998;2023-04-19T06:20:45;18.13;;;6.97;;
26582;SDS011;14230;45.382;10.998;2023-04-19T06:23:13;15.65;;;7.13;;
26582;SDS011;14230;45.382;10.998;2023-04-19T06:25:41;16.92;;;7.20;;
26582;SDS011;14230;45.382;10.998;2023-04-19T06:28:08;14.02;;;5.60;;
26582;SDS011;14230;45.382;10.998;2023-04-19T06:30:36;10.98;;;5.00;;
26582;SDS011;14230;45.382;10.998;2023-04-19T06:33:04;7.90;;;4.28;;
26582;SDS011;14230;45.382;10.998;2023-04-19T06:35:31;7.85;;;4.60;;
26582;SDS011;14230;45.382;10.998;2023-04-19T06:37:59;9.57;;;5.03;;
26582;SDS011;14230;45.382;10.998;2023-04-19T06:40:26;7.07;;;4.13;;
26582;SDS011;14230;45.382;10.998;2023-04-19T06:42:57;7.05;;;4.00;;
26582;SDS011;14230;45.382;10.998;2023-04-19T06:45:24;5.28;;;4.00;;
26582;SDS011;14230;45.382;10.998;2023-04-19T06:47:52;8.38;;;3.78;;
26582;SDS011;14230;45.382;10.998;2023-04-19T06:50:20;8.77;;;3.90;;
26582;SDS011;14230;45.382;10.998;2023-04-19T06:52:47;7.57;;;4.13;;
26582;SDS011;14230;45.382;10.998;2023-04-19T06:55:15;14.07;;;4.63;;
26582;SDS011;14230;45.382;10.998;2023-04-19T06:57:42;6.85;;;3.88;;
26582;SDS011;14230;45.382;10.998;2023-04-19T07:00:10;7.70;;;4.30;;
26582;SDS011;14230;45.382;10.998;2023-04-19T07:02:38;7.43;;;3.55;;
26582;SDS011;14230;45.382;10.998;2023-04-19T07:05:06;5.53;;;3.92;;
26582;SDS011;14230;45.382;10.998;2023-04-19T07:07:34;4.32;;;3.20;;
26582;SDS011;14230;45.382;10.998;2023-04-19T07:10:04;5.93;;;3.47;;
26582;SDS011;14230;45.382;10.998;2023-04-19T07:12:34;6.75;;;3.58;;
26582;SDS011;14230;45.382;10.998;2023-04-19T07:15:02;5.57;;;3.20;;
26582;SDS011;14230;45.382;10.998;2023-04-19T07:17:30;7.47;;;2.80;;
26582;SDS011;14230;45.382;10.998;2023-04-19T07:19:59;4.70;;;3.30;;
26582;SDS011;14230;45.382;10.998;2023-04-19T07:22:27;6.72;;;3.40;;
26582;SDS011;14230;45.382;10.998;2023-04-19T07:24:56;6.63;;;3.67;;
26582;SDS011;14230;45.382;10.998;2023-04-19T07:27:23;3.95;;;3.08;;
26582;SDS011;14230;45.382;10.998;2023-04-19T07:29:51;4.05;;;3.28;;
26582;SDS011;14230;45.382;10.998;2023-04-19T07:32:19;4.53;;;3.25;;
26582;SDS011;14230;45.382;10.998;2023-04-19T07:34:46;5.05;;;3.80;;
26582;SDS011;14230;45.382;10.998;2023-04-19T07:37:14;15.15;;;5.10;;
26582;SDS011;14230;45.382;10.998;2023-04-19T07:39:44;5.68;;;3.90;;
26582;SDS011;14230;45.382;10.998;2023-04-19T07:42:11;3.97;;;3.50;;
26582;SDS011;14230;45.382;10.998;2023-04-19T07:44:39;5.53;;;4.47;;
26582;SDS011;14230;45.382;10.998;2023-04-19T07:47:07;6.40;;;4.82;;
26582;SDS011;14230;45.382;10.998;2023-04-19T07:49:34;7.47;;;4.35;;
26582;SDS011;14230;45.382;10.998;2023-04-19T07:52:05;7.93;;;3.80;;
26582;SDS011;14230;45.382;10.998;2023-04-19T07:54:33;4.68;;;3.85;;
26582;SDS011;14230;45.382;10.998;2023-04-19T07:57:01;6.65;;;4.15;;
26582;SDS011;14230;45.382;10.998;2023-04-19T07:59:29;7.80;;;4.22;;
26582;SDS011;14230;45.382;10.998;2023-04-19T08:01:59;5.88;;;4.97;;
26582;SDS011;14230;45.382;10.998;2023-04-19T08:04:26;5.75;;;5.10;;
26582;SDS011;14230;45.382;10.998;2023-04-19T08:06:55;6.25;;;4.60;;
26582;SDS011;14230;45.382;10.998;2023-04-19T08:09:22;5.57;;;5.00;;
26582;SDS011;14230;45.382;10.998;2023-04-19T08:11:50;5.72;;;4.88;;
26582;SDS011;14230;45.382;10.998;2023-04-19T08:14:19;5.35;;;4.68;;
26582;SDS011;14230;45.382;10.998;2023-04-19T08:17:06;7.10;;;5.07;;
26582;SDS011;14230;45.382;10.998;2023-04-19T08:19:51;5.20;;;4.70;;
26582;SDS011;14230;45.382;10.998;2023-04-19T08:22:19;5.85;;;4.65;;
26582;SDS011;14230;45.382;10.998;2023-04-19T08:24:50;6.45;;;5.30;;
26582;SDS011;14230;45.382;10.998;2023-04-19T08:27:18;6.20;;;4.68;;
26582;SDS011;14230;45.382;10.998;2023-04-19T08:29:46;6.88;;;5.15;;
26582;SDS011;14230;45.382;10.998;2023-04-19T08:32:13;7.65;;;5.65;;
26582;SDS011;14230;45.382;10.998;2023-04-19T08:34:41;6.28;;;4.35;;
26582;SDS011;14230;45.382;10.998;2023-04-19T08:37:08;7.32;;;5.25;;
26582;SDS011;14230;45.382;10.998;2023-04-19T08:39:36;8.10;;;4.55;;
26582;SDS011;14230;45.382;10.998;2023-04-19T08:42:04;9.32;;;5.60;;
26582;SDS011;14230;45.382;10.998;2023-04-19T08:44:50;8.70;;;5.35;;
26582;SDS011;14230;45.382;10.998;2023-04-19T08:47:39;11.55;;;4.90;;
26582;SDS011;14230;45.382;10.998;2023-04-19T08:50:29;7.60;;;6.22;;
26582;SDS011;14230;45.382;10.998;2023-04-19T08:53:11;5.90;;;5.22;;
26582;SDS011;14230;45.382;10.998;2023-04-19T08:55:50;5.93;;;5.32;;
26582;SDS011;14230;45.382;10.998;2023-04-19T08:58:36;6.75;;;5.70;;
26582;SDS011;14230;45.382;10.998;2023-04-19T09:01:23;9.52;;;5.97;;
26582;SDS011;14230;45.382;10.998;2023-04-19T09:03:53;8.77;;;6.10;;
26582;SDS011;14230;45.382;10.998;2023-04-19T09:06:41;8.98;;;6.13;;
26582;SDS011;14230;45.382;10.998;2023-04-19T09:09:28;7.03;;;5.00;;
26582;SDS011;14230;45.382;10.998;2023-04-19T09:11:59;11.90;;;6.03;;
26582;SDS011;14230;45.382;10.998;2023-04-19T09:14:27;8.90;;;6.00;;
26582;SDS011;14230;45.382;10.998;2023-04-19T09:17:15;7.88;;;6.97;;
26582;SDS011;14230;45.382;10.998;2023-04-19T09:19:49;13.55;;;6.75;;
26582;SDS011;14230;45.382;10.998;2023-04-19T09:22:17;6.72;;;6.13;;
26582;SDS011;14230;45.382;10.998;2023-04-19T09:24:44;9.77;;;6.60;;
26582;SDS011;14230;45.382;10.998;2023-04-19T09:27:36;7.68;;;6.05;;
26582;SDS011;14230;45.382;10.998;2023-04-19T09:30:04;5.95;;;5.35;;
26582;SDS011;14230;45.382;10.998;2023-04-19T09:32:44;7.82;;;5.45;;
26582;SDS011;14230;45.382;10.998;2023-04-19T09:35:14;10.90;;;7.32;;
26582;SDS011;14230;45.382;10.998;2023-04-19T09:37:41;6.63;;;5.97;;
26582;SDS011;14230;45.382;10.998;2023-04-19T09:40:21;6.38;;;5.70;;
26582;SDS011;14230;45.382;10.998;2023-04-19T09:42:54;9.43;;;5.28;;
26582;SDS011;14230;45.382;10.998;2023-04-19T09:45:38;6.60;;;5.90;;
26582;SDS011;14230;45.382;10.998;2023-04-19T09:48:07;9.00;;;5.97;;
26582;SDS011;14230;45.382;10.998;2023-04-19T09:50:36;7.80;;;5.45;;
26582;SDS011;14230;45.382;10.998;2023-04-19T09:53:27;7.28;;;6.20;;
26582;SDS011;14230;45.382;10.998;2023-04-19T09:55:56;8.20;;;5.38;;
26582;SDS011;14230;45.382;10.998;2023-04-19T10:01:12;7.65;;;5.93;;
26582;SDS011;14230;45.382;10.998;2023-04-19T10:03:46;7.13;;;5.93;;
26582;SDS011;14230;45.382;10.998;2023-04-19T10:06:17;6.35;;;5.75;;
26582;SDS011;14230;45.382;10.998;2023-04-19T10:08:48;6.00;;;5.50;;
26582;SDS011;14230;45.382;10.998;2023-04-19T10:11:19;7.38;;;6.40;;
26582;SDS011;14230;45.382;10.998;2023-04-19T10:13:52;8.80;;;5.15;;
26582;SDS011;14230;45.382;10.998;2023-04-19T10:16:25;9.63;;;5.40;;
26582;SDS011;14230;45.382;10.998;2023-04-19T10:18:53;7.95;;;5.30;;
26582;SDS011;14230;45.382;10.998;2023-04-19T10:21:21;4.72;;;4.10;;
26582;SDS011;14230;45.382;10.998;2023-04-19T10:23:50;5.55;;;5.00;;
26582;SDS011;14230;45.382;10.998;2023-04-19T10:26:17;5.32;;;4.80;;
26582;SDS011;14230;45.382;10.998;2023-04-19T10:28:45;6.65;;;5.32;;
26582;SDS011;14230;45.382;10.998;2023-04-19T10:31:14;7.15;;;4.93;;
26582;SDS011;14230;45.382;10.998;2023-04-19T10:33:42;10.30;;;5.47;;
26582;SDS011;14230;45.382;10.998;2023-04-19T10:36:13;7.28;;;5.30;;
26582;SDS011;14230;45.382;10.998;2023-04-19T10:38:43;8.65;;;5.15;;
26582;SDS011;14230;45.382;10.998;2023-04-19T10:41:15;12.25;;;6.63;;
26582;SDS011;14230;45.382;10.998;2023-04-19T10:48:56;6.53;;;5.80;;
26582;SDS011;14230;45.382;10.998;2023-04-19T10:51:26;5.85;;;5.32;;
26582;SDS011;14230;45.382;10.998;2023-04-19T10:54:02;5.28;;;4.78;;
26582;SDS011;14230;45.382;10.998;2023-04-19T11:01:48;5.35;;;4.78;;
26582;SDS011;14230;45.382;10.998;2023-04-19T11:04:21;10.27;;;5.60;;
26582;SDS011;14230;45.382;10.998;2023-04-19T11:06:59;6.03;;;4.88;;
26582;SDS011;14230;45.382;10.998;2023-04-19T11:09:35;10.73;;;5.45;;
26582;SDS011;14230;45.382;10.998;2023-04-19T11:12:05;6.07;;;5.47;;
26582;SDS011;14230;45.382;10.998;2023-04-19T11:14:35;6.03;;;5.20;;
26582;SDS011;14230;45.382;10.998;2023-04-19T11:17:23;6.72;;;5.00;;
26582;SDS011;14230;45.382;10.998;2023-04-19T11:19:57;5.50;;;4.93;;
26582;SDS011;14230;45.382;10.998;2023-04-19T11:22:39;5.82;;;4.60;;
26582;SDS011;14230;45.382;10.998;2023-04-19T11:27:37;4.53;;;4.13;;
26582;SDS011;14230;45.382;10.998;2023-04-19T11:30:08;4.63;;;4.22;;
26582;SDS011;14230;45.382;10.998;2023-04-19T11:32:45;3.92;;;3.50;;
26582;SDS011;14230;45.382;10.998;2023-04-19T11:35:14;3.97;;;3.58;;
26582;SDS011;14230;45.382;10.998;2023-04-19T11:37:45;5.85;;;3.83;;
26582;SDS011;14230;45.382;10.998;2023-04-19T11:40:16;4.18;;;3.78;;
26582;SDS011;14230;45.382;10.998;2023-04-19T11:42:45;4.70;;;3.13;;
26582;SDS011;14230;45.382;10.998;2023-04-19T11:45:23;5.57;;;3.53;;
26582;SDS011;14230;45.382;10.998;2023-04-19T11:47:57;4.57;;;3.50;;
26582;SDS011;14230;45.382;10.998;2023-04-19T11:50:43;3.80;;;3.38;;
26582;SDS011;14230;45.382;10.998;2023-04-19T11:53:13;4.13;;;2.97;;
26582;SDS011;14230;45.382;10.998;2023-04-19T11:55:48;4.65;;;3.13;;
26582;SDS011;14230;45.382;10.998;2023-04-19T11:58:33;4.68;;;2.78;;
26582;SDS011;14230;45.382;10.998;2023-04-19T12:01:17;3.92;;;3.13;;
26582;SDS011;14230;45.382;10.998;2023-04-19T12:03:51;4.45;;;3.15;;
26582;SDS011;14230;45.382;10.998;2023-04-19T12:08:53;9.50;;;3.42;;
26582;SDS011;14230;45.382;10.998;2023-04-19T12:11:22;4.22;;;3.45;;
26582;SDS011;14230;45.382;10.998;2023-04-19T12:14:07;4.75;;;3.70;;
26582;SDS011;14230;45.382;10.998;2023-04-19T12:16:36;4.15;;;3.75;;
26582;SDS011;14230;45.382;10.998;2023-04-19T12:19:10;4.05;;;3.70;;
26582;SDS011;14230;45.382;10.998;2023-04-19T12:21:44;5.22;;;3.72;;
26582;SDS011;14230;45.382;10.998;2023-04-19T12:24:15;4.47;;;4.07;;
26582;SDS011;14230;45.382;10.998;2023-04-19T12:26:55;4.25;;;3.60;;
26582;SDS011;14230;45.382;10.998;2023-04-19T12:29:25;4.57;;;3.60;;
26582;SDS011;14230;45.382;10.998;2023-04-19T12:31:53;4.18;;;3.20;;
26582;SDS011;14230;45.382;10.998;2023-04-19T12:34:21;4.10;;;3.70;;
26582;SDS011;14230;45.382;10.998;2023-04-19T12:36:48;6.03;;;3.72;;
26582;SDS011;14230;45.382;10.998;2023-04-19T12:39:15;4.30;;;3.40;;
26582;SDS011;14230;45.382;10.998;2023-04-19T12:41:43;4.93;;;4.32;;
26582;SDS011;14230;45.382;10.998;2023-04-19T12:44:13;5.50;;;3.35;;
26582;SDS011;14230;45.382;10.998;2023-04-19T12:46:41;4.32;;;3.40;;
26582;SDS011;14230;45.382;10.998;2023-04-19T12:49:09;4.72;;;3.75;;
26582;SDS011;14230;45.382;10.998;2023-04-19T12:51:36;4.72;;;4.22;;
26582;SDS011;14230;45.382;10.998;2023-04-19T12:54:04;3.78;;;3.33;;
26582;SDS011;14230;45.382;10.998;2023-04-19T12:56:33;5.75;;;3.60;;
26582;SDS011;14230;45.382;10.998;2023-04-19T12:59:01;5.60;;;3.80;;
26582;SDS011;14230;45.382;10.998;2023-04-19T13:01:28;5.65;;;3.88;;
26582;SDS011;14230;45.382;10.998;2023-04-19T13:03:57;4.13;;;3.72;;
26582;SDS011;14230;45.382;10.998;2023-04-19T13:06:25;5.90;;;3.97;;
26582;SDS011;14230;45.382;10.998;2023-04-19T13:08:53;7.60;;;3.58;;
26582;SDS011;14230;45.382;10.998;2023-04-19T13:11:25;5.35;;;4.15;;
26582;SDS011;14230;45.382;10.998;2023-04-19T13:13:52;4.20;;;3.80;;
26582;SDS011;14230;45.382;10.998;2023-04-19T13:16:20;4.38;;;3.70;;
26582;SDS011;14230;45.382;10.998;2023-04-19T13:18:48;4.22;;;3.80;;
26582;SDS011;14230;45.382;10.998;2023-04-19T13:21:18;5.07;;;3.80;;
26582;SDS011;14230;45.382;10.998;2023-04-19T13:23:45;3.83;;;3.10;;
26582;SDS011;14230;45.382;10.998;2023-04-19T13:26:13;3.83;;;2.92;;
26582;SDS011;14230;45.382;10.998;2023-04-19T13:28:41;5.18;;;3.75;;
26582;SDS011;14230;45.382;10.998;2023-04-19T13:31:09;3.22;;;2.97;;
26582;SDS011;14230;45.382;10.998;2023-04-19T13:33:37;9.85;;;3.90;;
26582;SDS011;14230;45.382;10.998;2023-04-19T13:36:04;5.32;;;3.20;;
26582;SDS011;14230;45.382;10.998;2023-04-19T13:38:32;5.20;;;4.00;;
26582;SDS011;14230;45.382;10.998;2023-04-19T13:41:01;5.70;;;3.75;;
26582;SDS011;14230;45.382;10.998;2023-04-19T13:43:29;3.75;;;3.40;;
26582;SDS011;14230;45.382;10.998;2023-04-19T13:45:56;9.32;;;3.58;;
26582;SDS011;14230;45.382;10.998;2023-04-19T13:48:24;8.18;;;4.10;;
26582;SDS011;14230;45.382;10.998;2023-04-19T13:50:54;7.57;;;3.83;;
26582;SDS011;14230;45.382;10.998;2023-04-19T13:53:23;6.28;;;3.53;;
26582;SDS011;14230;45.382;10.998;2023-04-19T13:55:52;3.33;;;3.05;;
26582;SDS011;14230;45.382;10.998;2023-04-19T13:58:20;3.83;;;3.10;;
26582;SDS011;14230;45.382;10.998;2023-04-19T14:00:47;5.43;;;3.20;;
26582;SDS011;14230;45.382;10.998;2023-04-19T14:03:15;5.85;;;3.55;;
26582;SDS011;14230;45.382;10.998;2023-04-19T14:05:42;4.95;;;3.30;;
26582;SDS011;14230;45.382;10.998;2023-04-19T14:08:10;6.70;;;3.42;;
26582;SDS011;14230;45.382;10.998;2023-04-19T14:10:37;4.65;;;2.90;;
26582;SDS011;14230;45.382;10.998;2023-04-19T14:13:06;5.03;;;3.65;;
26582;SDS011;14230;45.382;10.998;2023-04-19T14:15:33;4.50;;;3.30;;
26582;SDS011;14230;45.382;10.998;2023-04-19T14:18:01;3.40;;;3.10;;
26582;SDS011;14230;45.382;10.998;2023-04-19T14:20:29;11.63;;;5.43;;
26582;SDS011;14230;45.382;10.998;2023-04-19T14:22:56;18.45;;;6.30;;
26582;SDS011;14230;45.382;10.998;2023-04-19T14:25:25;7.68;;;6.68;;
26582;SDS011;14230;45.382;10.998;2023-04-19T14:27:52;13.35;;;7.20;;
26582;SDS011;14230;45.382;10.998;2023-04-19T14:30:20;11.50;;;7.15;;
26582;SDS011;14230;45.382;10.998;2023-04-19T14:32:47;12.60;;;6.80;;
26582;SDS011;14230;45.382;10.998;2023-04-19T14:35:15;9.05;;;6.88;;
26582;SDS011;14230;45.382;10.998;2023-04-19T14:37:42;15.10;;;7.28;;
26582;SDS011;14230;45.382;10.998;2023-04-19T14:40:10;8.07;;;6.75;;
26582;SDS011;14230;45.382;10.998;2023-04-19T14:42:37;8.60;;;6.30;;
26582;SDS011;14230;45.382;10.998;2023-04-19T14:45:05;10.23;;;6.47;;
26582;SDS011;14230;45.382;10.998;2023-04-19T14:47:33;9.20;;;7.35;;
26582;SDS011;14230;45.382;10.998;2023-04-19T14:50:00;9.25;;;6.70;;
26582;SDS011;14230;45.382;10.998;2023-04-19T14:52:28;10.25;;;7.43;;
26582;SDS011;14230;45.382;10.998;2023-04-19T14:54:56;8.18;;;6.43;;
26582;SDS011;14230;45.382;10.998;2023-04-19T14:57:23;10.60;;;6.40;;
26582;SDS011;14230;45.382;10.998;2023-04-19T14:59:56;8.23;;;5.65;;
26582;SDS011;14230;45.382;10.998;2023-04-19T15:02:24;7.93;;;5.25;;
26582;SDS011;14230;45.382;10.998;2023-04-19T15:04:51;5.82;;;5.25;;
26582;SDS011;14230;45.382;10.998;2023-04-19T15:07:19;8.32;;;5.38;;
26582;SDS011;14230;45.382;10.998;2023-04-19T15:09:47;6.63;;;5.13;;